createdAt,value
2019-05-19T00:01:49.532Z,94009.69
2019-05-19T00:04:19.609Z,94016.28
2019-05-19T00:06:49.657Z,94014.02
2019-05-19T00:09:19.655Z,94017.66
2019-05-19T00:11:49.629Z,94014.58
2019-05-19T00:14:19.710Z,94021.30
2019-05-19T00:16:49.695Z,94017.72
2019-05-19T00:19:26.576Z,94024.39
2019-05-19T00:21:51.370Z,94023.42
2019-05-19T00:24:21.306Z,94021.49
2019-05-19T00:26:51.362Z,94019.21
2019-05-19T00:29:21.451Z,94015.30
2019-05-19T00:31:51.494Z,94018.39
2019-05-19T00:34:22.583Z,94010.43
2019-05-19T00:36:52.625Z,94014.97
2019-05-19T00:39:22.675Z,94008.10
2019-05-19T00:41:52.638Z,94005.59
2019-05-19T00:44:22.669Z,94012.85
2019-05-19T00:46:52.635Z,94018.56
2019-05-19T00:49:22.662Z,94014.50
2019-05-19T00:51:52.633Z,94014.50
2019-05-19T00:54:22.642Z,94016.63
2019-05-19T00:56:53.115Z,94017.30
2019-05-19T00:59:25.338Z,94015.33
2019-05-19T01:01:55.307Z,94020.55
2019-05-19T01:04:25.393Z,94019.88
2019-05-19T01:06:55.461Z,94021.52
2019-05-19T01:09:25.475Z,94019.39
2019-05-19T01:11:55.481Z,94018.75
2019-05-19T01:14:25.539Z,94021.56
2019-05-19T01:16:55.562Z,94020.78
2019-05-19T01:19:25.614Z,94022.39
2019-05-19T01:21:58.172Z,94021.41
2019-05-19T01:24:28.185Z,94021.90
2019-05-19T01:26:58.156Z,94017.84
2019-05-19T01:29:28.168Z,94018.17
2019-05-19T01:31:58.143Z,94026.19
2019-05-19T01:34:28.154Z,94020.98
2019-05-19T01:36:58.090Z,94028.61
2019-05-19T01:39:28.105Z,94027.31
2019-05-19T01:41:58.064Z,94035.81
2019-05-19T01:44:28.027Z,94035.03
2019-05-19T01:46:58.050Z,94039.91
2019-05-19T01:49:28.022Z,94039.13
2019-05-19T01:51:58.037Z,94040.95
2019-05-19T01:54:28.014Z,94037.53
2019-05-19T01:56:58.023Z,94042.08
2019-05-19T01:59:27.993Z,94040.44
2019-05-19T02:01:58.007Z,94044.02
2019-05-19T02:04:27.989Z,94043.20
2019-05-19T02:06:58.008Z,94048.41
2019-05-19T02:09:28.017Z,94042.38
2019-05-19T02:11:57.997Z,94046.63
2019-05-19T02:14:28.013Z,94040.92
2019-05-19T02:16:58.014Z,94041.70
2019-05-19T02:19:27.993Z,94041.22
2019-05-19T02:21:58.005Z,94046.88
2019-05-19T02:24:27.974Z,94052.54
2019-05-19T02:26:58.057Z,94047.61
2019-05-19T02:29:28.030Z,94046.60
2019-05-19T02:31:58.052Z,94059.31
2019-05-19T02:34:28.021Z,94061.23
2019-05-19T02:36:57.960Z,94057.95
2019-05-19T02:39:27.931Z,94060.08
2019-05-19T02:42:00.549Z,94058.58
2019-05-19T02:44:32.390Z,94060.99
2019-05-19T02:47:03.891Z,94058.34
2019-05-19T02:49:35.328Z,94061.09
2019-05-19T02:52:05.438Z,94055.34
2019-05-19T02:54:36.298Z,94060.36
2019-05-19T02:57:07.264Z,94064.70
2019-05-19T02:59:38.646Z,94066.00
2019-05-19T03:02:10.300Z,94061.07
2019-05-19T03:04:40.278Z,94056.93
2019-05-19T03:07:10.291Z,94054.45
2019-05-19T03:09:40.308Z,94050.28
2019-05-19T03:12:10.289Z,94051.02
2019-05-19T03:14:40.334Z,94049.40
2019-05-19T03:17:10.311Z,94053.27
2019-05-19T03:19:40.341Z,94059.94
2019-05-19T03:22:10.311Z,94057.16
2019-05-19T03:24:40.312Z,94057.59
2019-05-19T03:27:10.371Z,94064.94
2019-05-19T03:29:42.005Z,94065.89
2019-05-19T03:32:19.594Z,94058.67
2019-05-19T03:34:49.642Z,94069.27
2019-05-19T03:37:19.698Z,94070.71
2019-05-19T03:39:49.949Z,94071.01
2019-05-19T03:42:19.923Z,94071.17
2019-05-19T03:44:49.943Z,94075.53
2019-05-19T03:47:19.925Z,94075.38
2019-05-19T03:49:49.826Z,94075.04
2019-05-19T03:52:19.836Z,94079.09
2019-05-19T03:54:49.738Z,94084.47
2019-05-19T03:57:19.687Z,94071.72
2019-05-19T03:59:49.690Z,94074.47
2019-05-19T04:02:19.526Z,94072.97
2019-05-19T04:04:49.534Z,94070.84
2019-05-19T04:07:19.542Z,94071.30
2019-05-19T04:09:49.560Z,94075.03
2019-05-19T04:12:19.535Z,94074.73
2019-05-19T04:14:49.553Z,94076.53
2019-05-19T04:17:19.536Z,94080.59
2019-05-19T04:19:49.412Z,94084.33
2019-05-19T04:22:19.430Z,94082.04
2019-05-19T04:24:50.684Z,94080.18
2019-05-19T04:27:20.690Z,94083.75
2019-05-19T04:29:50.664Z,94082.28
2019-05-19T04:32:20.683Z,94085.86
2019-05-19T04:34:50.662Z,94087.00
2019-05-19T04:37:20.684Z,94089.06
2019-05-19T04:39:50.651Z,94089.88
2019-05-19T04:42:20.585Z,94094.44
2019-05-19T04:44:50.569Z,94094.04
2019-05-19T04:47:20.578Z,94087.23
2019-05-19T04:49:50.633Z,94092.27
2019-05-19T04:52:20.513Z,94095.81
2019-05-19T04:54:50.477Z,94094.53
2019-05-19T04:57:20.425Z,94092.75
2019-05-19T04:59:51.393Z,94092.11
2019-05-19T05:02:21.386Z,94096.13
2019-05-19T05:04:51.401Z,94090.70
2019-05-19T05:07:21.451Z,94088.65
2019-05-19T05:09:51.467Z,94094.19
2019-05-19T05:12:21.458Z,94087.13
2019-05-19T05:14:51.479Z,94093.31
2019-05-19T05:17:21.468Z,94094.49
2019-05-19T05:19:51.478Z,94097.95
2019-05-19T05:22:22.496Z,94098.38
2019-05-19T05:24:52.843Z,94090.64
2019-05-19T05:27:22.929Z,94095.02
2019-05-19T05:29:52.903Z,94100.33
2019-05-19T05:32:22.987Z,94093.77
2019-05-19T05:34:52.977Z,94097.73
2019-05-19T05:37:22.986Z,94099.20
2019-05-19T05:39:53.940Z,94099.16
2019-05-19T05:42:23.953Z,94100.98
2019-05-19T05:44:53.859Z,94100.33
2019-05-19T05:47:23.877Z,94103.22
2019-05-19T05:49:53.937Z,94100.22
2019-05-19T05:52:37.530Z,94099.05
2019-05-19T05:54:55.551Z,94098.52
2019-05-19T05:57:25.565Z,94101.18
2019-05-19T05:59:55.472Z,94099.09
2019-05-19T06:02:25.492Z,94100.64
2019-05-19T06:04:55.474Z,94101.25
2019-05-19T06:07:25.421Z,94097.15
2019-05-19T06:09:55.439Z,94095.03
2019-05-19T06:12:25.433Z,94097.58
2019-05-19T06:14:55.455Z,94095.75
2019-05-19T06:17:25.374Z,94094.14
2019-05-19T06:19:55.315Z,94092.52
2019-05-19T06:22:25.304Z,94087.37
2019-05-19T06:24:55.255Z,94090.00
2019-05-19T06:27:25.231Z,94092.22
2019-05-19T06:29:55.250Z,94093.63
2019-05-19T06:32:26.802Z,94104.17
2019-05-19T06:34:56.819Z,94099.41
2019-05-19T06:37:26.899Z,94102.55
2019-05-19T06:39:56.879Z,94104.45
2019-05-19T06:42:26.967Z,94104.86
2019-05-19T06:44:56.950Z,94102.32
2019-05-19T06:47:26.987Z,94106.05
2019-05-19T06:49:56.888Z,94102.51
2019-05-19T06:52:26.910Z,94104.73
2019-05-19T06:54:56.839Z,94102.41
2019-05-19T06:57:26.901Z,94096.42
2019-05-19T06:59:56.892Z,94099.94
2019-05-19T07:02:26.817Z,94095.08
2019-05-19T07:04:56.835Z,94090.11
2019-05-19T07:07:26.894Z,94087.66
2019-05-19T07:09:58.774Z,94081.34
2019-05-19T07:12:28.660Z,94082.08
2019-05-19T07:14:58.683Z,94083.27
2019-05-19T07:17:28.670Z,94080.80
2019-05-19T07:19:58.688Z,94081.79
2019-05-19T07:22:28.708Z,94079.02
2019-05-19T07:24:58.614Z,94080.27
2019-05-19T07:27:28.671Z,94077.39
2019-05-19T07:29:58.648Z,94076.98
2019-05-19T07:32:28.704Z,94071.26
2019-05-19T07:34:58.768Z,94067.55
2019-05-19T07:37:28.806Z,94067.84
2019-05-19T07:39:58.785Z,94066.38
2019-05-19T07:42:28.793Z,94067.66
2019-05-19T07:44:58.730Z,94071.64
2019-05-19T07:47:28.642Z,94072.63
2019-05-19T07:49:58.740Z,94064.66
2019-05-19T07:52:29.633Z,94065.10
2019-05-19T07:54:59.648Z,94069.02
2019-05-19T07:57:29.667Z,94072.88
2019-05-19T07:59:59.578Z,94073.95
2019-05-19T08:02:29.599Z,94073.97
2019-05-19T08:04:59.662Z,94078.39
2019-05-19T08:07:29.746Z,94077.66
2019-05-19T08:09:59.727Z,94072.71
2019-05-19T08:12:29.714Z,94077.66
2019-05-19T08:14:59.728Z,94076.30
2019-05-19T08:17:29.819Z,94083.04
2019-05-19T08:19:59.872Z,94089.94
2019-05-19T08:22:29.882Z,94085.77
2019-05-19T08:24:59.929Z,94087.45
2019-05-19T08:27:29.942Z,94091.95
2019-05-19T08:29:59.923Z,94081.20
2019-05-19T08:32:29.932Z,94086.51
2019-05-19T08:34:59.979Z,94088.46
2019-05-19T08:37:29.998Z,94091.89
2019-05-19T08:39:59.994Z,94088.66
2019-05-19T08:42:30.028Z,94082.42
2019-05-19T08:45:00.017Z,94082.84
2019-05-19T08:47:30.038Z,94083.04
2019-05-19T08:50:00.019Z,94086.33
2019-05-19T08:52:29.960Z,94082.10
2019-05-19T08:55:00.002Z,94080.91
2019-05-19T08:57:29.955Z,94072.78
2019-05-19T09:00:00.101Z,94072.50
2019-05-19T09:02:30.157Z,94072.63
2019-05-19T09:05:00.155Z,94071.03
2019-05-19T09:07:30.215Z,94067.09
2019-05-19T09:10:00.137Z,94072.24
2019-05-19T09:12:30.088Z,94072.93
2019-05-19T09:15:00.202Z,94070.41
2019-05-19T09:17:30.216Z,94070.34
2019-05-19T09:20:00.196Z,94067.23
2019-05-19T09:22:30.273Z,94066.90
2019-05-19T09:25:00.276Z,94064.44
2019-05-19T09:27:30.290Z,94061.68
2019-05-19T09:30:00.270Z,94057.32
2019-05-19T09:32:30.312Z,94048.60
2019-05-19T09:35:00.367Z,94048.53
2019-05-19T09:37:30.375Z,94050.35
2019-05-19T09:40:00.388Z,94045.73
2019-05-19T09:42:31.987Z,94047.92
2019-05-19T09:45:02.051Z,94041.67
2019-05-19T09:47:33.001Z,94033.05
2019-05-19T09:50:03.066Z,94035.80
2019-05-19T09:52:33.041Z,94033.70
2019-05-19T09:55:03.125Z,94030.55
2019-05-19T09:57:33.177Z,94030.00
2019-05-19T10:00:03.990Z,94025.86
2019-05-19T10:02:35.432Z,94017.65
2019-05-19T10:05:07.012Z,94013.96
2019-05-19T10:07:36.995Z,94013.24
2019-05-19T10:10:09.961Z,94015.98
2019-05-19T10:12:40.032Z,94020.23
2019-05-19T10:15:13.236Z,94016.92
2019-05-19T10:17:43.303Z,94017.48
2019-05-19T10:20:14.433Z,94015.39
2019-05-19T10:22:44.474Z,94010.63
2019-05-19T10:25:23.233Z,94009.18
2019-05-19T10:27:46.958Z,94010.14
2019-05-19T10:30:17.415Z,94006.89
2019-05-19T10:32:47.436Z,94007.04
2019-05-19T10:35:17.478Z,93999.06
2019-05-19T10:37:47.415Z,94000.42
2019-05-19T10:40:18.285Z,93996.16
2019-05-19T10:42:48.456Z,94002.41
2019-05-19T10:45:18.714Z,93997.05
2019-05-19T10:47:48.785Z,93994.19
2019-05-19T10:50:18.834Z,93996.96
2019-05-19T10:52:48.973Z,93993.19
2019-05-19T10:55:19.351Z,93992.94
2019-05-19T10:57:49.367Z,93986.17
2019-05-19T11:00:19.614Z,93987.34
2019-05-19T11:02:49.697Z,93980.92
2019-05-19T11:05:19.761Z,93982.14
2019-05-19T11:07:49.783Z,93980.81
2019-05-19T11:10:19.775Z,93974.48
2019-05-19T11:12:49.904Z,93980.19
2019-05-19T11:15:19.935Z,93973.70
2019-05-19T11:17:50.070Z,93971.07
2019-05-19T11:20:20.078Z,93970.44
2019-05-19T11:22:50.118Z,93971.05
2019-05-19T11:25:33.049Z,93977.29
2019-05-19T11:27:51.811Z,93977.10
2019-05-19T11:30:21.888Z,93974.16
2019-05-19T11:32:51.940Z,93952.20
2019-05-19T11:35:21.977Z,93960.91
2019-05-19T11:37:52.012Z,93958.63
2019-05-19T11:40:22.028Z,93957.30
2019-05-19T11:42:52.001Z,93949.89
2019-05-19T11:45:22.034Z,93952.14
2019-05-19T11:47:52.023Z,93955.58
2019-05-19T11:50:22.073Z,93955.98
2019-05-19T11:52:51.971Z,93958.78
2019-05-19T11:55:21.992Z,93952.88
2019-05-19T11:57:51.981Z,93946.63
2019-05-19T12:00:22.086Z,93943.06
2019-05-19T12:02:52.126Z,93936.50
2019-05-19T12:05:22.406Z,93943.45
2019-05-19T12:07:52.603Z,93938.42
2019-05-19T12:10:23.680Z,93928.16
2019-05-19T12:12:53.650Z,93936.37
2019-05-19T12:15:23.659Z,93938.33
2019-05-19T12:17:53.719Z,93941.64
2019-05-19T12:20:23.733Z,93936.58
2019-05-19T12:22:53.785Z,93930.15
2019-05-19T12:25:23.789Z,93935.05
2019-05-19T12:27:53.846Z,93934.77
2019-05-19T12:30:23.864Z,93930.05
2019-05-19T12:32:53.838Z,93937.05
2019-05-19T12:35:23.924Z,93934.52
2019-05-19T12:37:53.970Z,93921.50
2019-05-19T12:40:23.995Z,93927.72
2019-05-19T12:42:54.041Z,93920.22
2019-05-19T12:45:24.381Z,93922.58
2019-05-19T12:47:54.467Z,93922.96
2019-05-19T12:50:24.443Z,93915.41
2019-05-19T12:52:54.487Z,93915.47
2019-05-19T12:55:24.530Z,93917.02
2019-05-19T12:57:54.804Z,93910.72
2019-05-19T13:00:24.857Z,93918.70
2019-05-19T13:02:54.995Z,93912.97
2019-05-19T13:05:24.992Z,93902.36
2019-05-19T13:07:54.971Z,93896.53
2019-05-19T13:10:25.927Z,93896.82
2019-05-19T13:12:55.960Z,93896.59
2019-05-19T13:15:25.931Z,93892.14
2019-05-19T13:17:56.056Z,93883.12
2019-05-19T13:20:26.026Z,93895.95
2019-05-19T13:22:57.837Z,93885.94
2019-05-19T13:25:27.796Z,93882.91
2019-05-19T13:27:57.806Z,93876.16
2019-05-19T13:30:27.820Z,93877.42
2019-05-19T13:32:57.831Z,93879.02
2019-05-19T13:35:27.821Z,93874.23
2019-05-19T13:37:57.894Z,93872.56
2019-05-19T13:40:27.869Z,93874.87
2019-05-19T13:42:57.884Z,93864.16
2019-05-19T13:45:27.890Z,93861.81
2019-05-19T13:47:58.935Z,93862.11
2019-05-19T13:50:29.016Z,93870.09
2019-05-19T13:52:58.991Z,93865.02
2019-05-19T13:55:29.000Z,93857.80
2019-05-19T13:57:58.974Z,93851.03
2019-05-19T14:00:28.984Z,93849.11
2019-05-19T14:02:59.060Z,93846.39
2019-05-19T14:05:29.207Z,93842.86
2019-05-19T14:07:59.202Z,93838.78
2019-05-19T14:10:29.225Z,93848.29
2019-05-19T14:12:59.306Z,93844.76
2019-05-19T14:15:29.398Z,93844.20
2019-05-19T14:17:59.363Z,93843.35
2019-05-19T14:20:29.438Z,93840.58
2019-05-19T14:22:59.413Z,93846.64
2019-05-19T14:25:29.423Z,93839.11
2019-05-19T14:27:59.408Z,93841.70
2019-05-19T14:30:30.505Z,93845.91
2019-05-19T14:33:00.534Z,93850.36
2019-05-19T14:35:30.609Z,93844.70
2019-05-19T14:38:00.634Z,93847.37
2019-05-19T14:40:30.712Z,93841.48
2019-05-19T14:43:02.426Z,93834.48
2019-05-19T14:45:32.734Z,93840.31
2019-05-19T14:48:02.825Z,93838.42
2019-05-19T14:50:32.850Z,93830.16
2019-05-19T14:53:02.817Z,93836.06
2019-05-19T14:55:32.754Z,93835.78
2019-05-19T14:58:02.729Z,93834.78
2019-05-19T15:00:32.806Z,93840.10
2019-05-19T15:03:02.774Z,93834.82
2019-05-19T15:05:32.797Z,93839.38
2019-05-19T15:08:02.779Z,93838.61
2019-05-19T15:10:32.786Z,93838.39
2019-05-19T15:13:02.791Z,93837.91
2019-05-19T15:15:32.861Z,93836.38
2019-05-19T15:18:02.845Z,93837.55
2019-05-19T15:20:32.889Z,93838.09
2019-05-19T15:23:02.894Z,93835.97
2019-05-19T15:25:32.875Z,93830.91
2019-05-19T15:28:05.261Z,93831.44
2019-05-19T15:30:34.491Z,93838.80
2019-05-19T15:33:04.570Z,93835.56
2019-05-19T15:35:34.579Z,93834.02
2019-05-19T15:38:04.558Z,93832.16
2019-05-19T15:40:34.562Z,93837.02
2019-05-19T15:43:04.542Z,93838.09
2019-05-19T15:45:34.545Z,93833.09
2019-05-19T15:48:04.593Z,93838.44
2019-05-19T15:50:34.611Z,93838.12
2019-05-19T15:53:04.691Z,93836.44
2019-05-19T15:55:34.669Z,93826.47
2019-05-19T15:58:16.098Z,93825.61
2019-05-19T16:00:36.362Z,93825.28
2019-05-19T16:03:06.370Z,93825.76
2019-05-19T16:05:36.336Z,93827.63
2019-05-19T16:08:06.420Z,93824.63
2019-05-19T16:10:36.391Z,93828.31
2019-05-19T16:13:06.411Z,93826.72
2019-05-19T16:15:37.350Z,93823.47
2019-05-19T16:18:07.354Z,93826.13
2019-05-19T16:20:37.324Z,93821.59
2019-05-19T16:23:07.347Z,93825.84
2019-05-19T16:25:37.390Z,93824.70
2019-05-19T16:28:07.464Z,93823.09
2019-05-19T16:30:37.439Z,93822.59
2019-05-19T16:33:07.511Z,93822.05
2019-05-19T16:35:38.133Z,93828.16
2019-05-19T16:38:08.239Z,93821.73
2019-05-19T16:40:38.274Z,93825.63
2019-05-19T16:43:08.367Z,93823.20
2019-05-19T16:45:38.272Z,93820.48
2019-05-19T16:48:08.342Z,93827.31
2019-05-19T16:50:38.381Z,93827.08
2019-05-19T16:53:08.461Z,93825.98
2019-05-19T16:55:40.121Z,93827.29
2019-05-19T16:58:20.782Z,93830.21
2019-05-19T17:00:42.004Z,93829.14
2019-05-19T17:03:12.080Z,93840.22
2019-05-19T17:05:42.129Z,93839.94
2019-05-19T17:08:12.070Z,93836.95
2019-05-19T17:13:10.910Z,93837.67
2019-05-19T17:15:40.911Z,93844.30
2019-05-19T17:18:10.842Z,93845.53
2019-05-19T17:20:40.818Z,93851.80
2019-05-19T17:23:10.898Z,93856.46
2019-05-19T17:25:40.866Z,93856.20
2019-05-19T17:28:10.892Z,93859.20
2019-05-19T17:30:40.876Z,93860.57
2019-05-19T17:33:10.810Z,93860.56
2019-05-19T17:35:40.798Z,93864.13
2019-05-19T17:38:11.316Z,93868.30
2019-05-19T17:40:41.299Z,93867.72
2019-05-19T17:43:11.273Z,93871.70
2019-05-19T17:45:41.275Z,93877.12
2019-05-19T17:48:25.429Z,93878.31
2019-05-19T17:50:42.977Z,93873.97
2019-05-19T17:53:13.185Z,93878.30
2019-05-19T17:55:45.170Z,93878.63
2019-05-19T17:58:15.195Z,93880.08
2019-05-19T18:00:45.196Z,93878.63
2019-05-19T18:03:15.204Z,93877.25
2019-05-19T18:05:45.185Z,93874.76
2019-05-19T18:08:15.189Z,93878.41
2019-05-19T18:10:45.159Z,93868.22
2019-05-19T18:13:15.161Z,93873.16
2019-05-19T18:15:45.138Z,93870.81
2019-05-19T18:18:15.210Z,93880.30
2019-05-19T18:20:47.121Z,93878.05
2019-05-19T18:23:17.526Z,93886.00
2019-05-19T18:25:47.492Z,93889.26
2019-05-19T18:28:17.495Z,93886.19
2019-05-19T18:30:47.466Z,93892.09
2019-05-19T18:33:17.543Z,93893.34
2019-05-19T18:35:47.510Z,93889.27
2019-05-19T18:38:17.610Z,93892.02
2019-05-19T18:40:47.615Z,93896.27
2019-05-19T18:43:17.583Z,93902.81
2019-05-19T18:45:47.666Z,93906.90
2019-05-19T18:48:17.647Z,93908.97
2019-05-19T18:50:47.582Z,93918.82
2019-05-19T18:53:17.632Z,93926.01
2019-05-19T18:55:47.702Z,93942.93
2019-05-19T18:58:17.666Z,93945.14
2019-05-19T19:00:47.814Z,93966.91
2019-05-19T19:03:17.882Z,93974.03
2019-05-19T19:05:48.967Z,93978.17
2019-05-19T19:08:18.931Z,93990.85
2019-05-19T19:10:48.935Z,94008.85
2019-05-19T19:13:18.899Z,94006.38
2019-05-19T19:15:48.945Z,94014.51
2019-05-19T19:18:18.956Z,94013.55
2019-05-19T19:20:48.932Z,94013.41
2019-05-19T19:23:19.020Z,94017.23
2019-05-19T19:25:49.055Z,94016.59
2019-05-19T19:28:20.121Z,94018.03
2019-05-19T19:30:50.022Z,94022.47
2019-05-19T19:33:20.028Z,94018.91
2019-05-19T19:35:49.945Z,94022.88
2019-05-19T19:38:20.023Z,94022.29
2019-05-19T19:40:50.056Z,94023.44
2019-05-19T19:43:20.053Z,94026.81
2019-05-19T19:45:50.023Z,94034.59
2019-05-19T19:48:21.305Z,94040.66
2019-05-19T19:50:51.382Z,94041.33
2019-05-19T19:53:22.622Z,94039.34
2019-05-19T19:55:52.668Z,94036.47
2019-05-19T19:58:22.826Z,94045.67
2019-05-19T20:00:52.894Z,94045.46
2019-05-19T20:03:22.873Z,94049.16
2019-05-19T20:05:53.075Z,94048.45
2019-05-19T20:08:23.094Z,94044.05
2019-05-19T20:10:53.075Z,94046.45
2019-05-19T20:13:23.029Z,94040.19
2019-05-19T20:15:52.998Z,94036.16
2019-05-19T20:18:23.011Z,94028.77
2019-05-19T20:20:52.986Z,94016.34
2019-05-19T20:23:23.003Z,94008.05
2019-05-19T20:25:53.115Z,93999.45
2019-05-19T20:28:23.123Z,93994.98
2019-05-19T20:30:53.130Z,93985.47
2019-05-19T20:33:24.173Z,93979.40
2019-05-19T20:35:54.182Z,93989.09
2019-05-19T20:38:24.226Z,93993.42
2019-05-19T20:40:54.302Z,93997.27
2019-05-19T20:43:24.281Z,93999.50
2019-05-19T20:45:54.291Z,93999.31
2019-05-19T20:48:24.373Z,94004.15
2019-05-19T20:50:54.382Z,94004.72
2019-05-19T20:53:24.289Z,94003.08
2019-05-19T20:55:54.358Z,93999.03
2019-05-19T20:58:24.330Z,93989.13
2019-05-19T21:00:54.410Z,93984.37
2019-05-19T21:03:24.313Z,93981.42
2019-05-19T21:05:54.324Z,93973.15
2019-05-19T21:08:24.369Z,93970.92
2019-05-19T21:10:54.378Z,93976.38
2019-05-19T21:13:24.201Z,93977.59
2019-05-19T21:15:54.287Z,93995.76
2019-05-19T21:18:24.329Z,94004.56
2019-05-19T21:20:54.334Z,94015.50
2019-05-19T21:23:24.979Z,94021.67
2019-05-19T21:25:54.994Z,94027.64
2019-05-19T21:28:24.968Z,94028.45
2019-05-19T21:31:05.334Z,94017.14
2019-05-19T21:33:26.577Z,94010.07
2019-05-19T21:35:56.583Z,94016.60
2019-05-19T21:38:26.559Z,94021.95
2019-05-19T21:40:56.566Z,94020.92
2019-05-19T21:43:27.610Z,94022.06
2019-05-19T21:45:57.628Z,94033.78
2019-05-19T21:48:32.338Z,94028.14
2019-05-19T21:51:02.625Z,94027.85
2019-05-19T21:53:34.300Z,94021.57
2019-05-19T21:56:04.413Z,94017.63
2019-05-19T21:58:34.256Z,94016.14
2019-05-19T22:01:04.437Z,94007.34
2019-05-19T22:03:34.506Z,94007.16
2019-05-19T22:06:04.986Z,94009.08
2019-05-19T22:08:34.966Z,93998.75
2019-05-19T22:11:04.982Z,94000.59
2019-05-19T22:13:34.955Z,93994.10
2019-05-19T22:16:13.077Z,93984.63
2019-05-19T22:18:36.761Z,93980.44
2019-05-19T22:21:06.773Z,93979.22
2019-05-19T22:23:36.677Z,93966.19
2019-05-19T22:26:06.702Z,93958.99
2019-05-19T22:28:36.529Z,93958.02
2019-05-19T22:31:06.547Z,93957.91
2019-05-19T22:33:36.526Z,93952.41
2019-05-19T22:36:06.540Z,93952.30
2019-05-19T22:38:36.533Z,93950.06
2019-05-19T22:41:06.539Z,93955.67
2019-05-19T22:43:36.551Z,93958.41
2019-05-19T22:46:06.603Z,93957.98
2019-05-19T22:48:36.619Z,93956.34
2019-05-19T22:51:06.597Z,93958.30
2019-05-19T22:53:36.673Z,93970.11
2019-05-19T22:56:06.670Z,93970.51
2019-05-19T22:58:36.661Z,93976.78
2019-05-19T23:01:06.644Z,93979.58
2019-05-19T23:03:36.734Z,93981.71
2019-05-19T23:06:06.723Z,93982.52
2019-05-19T23:08:36.823Z,93984.45
2019-05-19T23:11:06.787Z,93985.88
2019-05-19T23:13:36.805Z,93986.37
2019-05-19T23:16:06.783Z,93984.23
2019-05-19T23:18:36.862Z,93981.61
2019-05-19T23:21:06.838Z,93978.38
2019-05-19T23:23:36.988Z,93976.58
2019-05-19T23:26:06.970Z,93978.70
2019-05-19T23:28:36.983Z,93980.30
2019-05-19T23:31:06.894Z,93983.45
2019-05-19T23:33:36.915Z,93991.33
2019-05-19T23:36:06.898Z,93987.39
2019-05-19T23:38:36.906Z,93985.05
2019-05-19T23:41:06.891Z,93991.44
2019-05-19T23:43:36.902Z,93996.16
2019-05-19T23:46:06.953Z,94000.91
2019-05-19T23:48:36.966Z,93996.16
2019-05-19T23:51:07.017Z,93989.31
2019-05-19T23:53:37.045Z,93994.73
2019-05-19T23:56:07.129Z,93997.68
2019-05-19T23:58:37.143Z,93998.39
